Time;durP1;ratioP1;P1;durP2;ratioP2;P2;SDS_P1;SDS_P2;PMS_P1;PMS_P2;Temp;Humidity;BMP_temperature;BMP_pressure;BME280_temperature;BME280_humidity;BME280_pressure;Samples;Min_cycle;Max_cycle;Signal;HPM_P1;HPM_P2
2022/07/16 00:03:13;;;;;;;1.57;1.57;;;16.50;1.00;;;;;;6279443;28;20328;-52
2022/07/16 00:06:16;;;;;;;1.40;1.40;;;16.50;1.00;;;;;;6291521;28;20969;-53
2022/07/16 00:09:20;;;;;;;1.73;1.73;;;16.50;1.00;;;;;;6271886;28;20634;-53
2022/07/16 00:12:23;;;;;;;1.63;1.63;;;16.50;1.00;;;;;;6282706;28;20516;-53
2022/07/16 00:15:27;;;;;;;1.77;1.77;;;16.50;1.00;;;;;;6273744;28;20328;-52
2022/07/16 00:21:54;;;;;;;1.90;1.80;;;16.40;1.00;;;;;;6278009;28;21240;-52
2022/07/16 00:24:57;;;;;;;1.67;1.67;;;16.40;1.00;;;;;;6278082;28;20241;-52
2022/07/16 00:28:01;;;;;;;1.73;1.73;;;16.40;1.00;;;;;;6281429;28;20237;-53
2022/07/16 00:31:05;;;;;;;3.23;2.17;;;16.50;1.00;;;;;;6282063;28;20283;-56
2022/07/16 00:34:09;;;;;;;1.60;1.60;;;16.40;1.00;;;;;;6277317;28;20831;-52
2022/07/16 00:37:11;;;;;;;1.80;1.70;;;16.40;1.00;;;;;;6292221;28;20701;-53
2022/07/16 00:40:14;;;;;;;2.00;1.90;;;16.30;1.00;;;;;;6272094;28;20249;-52
2022/07/16 00:43:17;;;;;;;1.97;1.87;;;16.30;1.00;;;;;;6267730;28;20261;-53
2022/07/16 00:46:22;;;;;;;1.77;1.67;;;16.30;1.00;;;;;;6256522;28;20291;-53
2022/07/16 00:49:25;;;;;;;2.10;1.90;;;16.30;1.00;;;;;;6269655;28;20328;-52
2022/07/16 00:52:28;;;;;;;1.70;1.70;;;16.30;1.00;;;;;;6279013;28;20568;-52
2022/07/16 00:55:31;;;;;;;1.50;1.50;;;16.30;1.00;;;;;;6278651;28;20236;-54
2022/07/16 00:58:34;;;;;;;2.03;1.93;;;16.30;1.00;;;;;;6256877;28;20252;-54
2022/07/16 01:01:38;;;;;;;1.90;1.80;;;16.30;1.00;;;;;;6270112;28;20316;-53
2022/07/16 01:04:41;;;;;;;1.70;1.70;;;16.30;1.00;;;;;;6273105;28;20317;-53
2022/07/16 01:07:45;;;;;;;1.53;1.53;;;16.20;1.00;;;;;;6284112;28;20248;-51
2022/07/16 01:10:49;;;;;;;2.03;1.93;;;16.20;1.00;;;;;;6278857;28;20407;-54
2022/07/16 01:14:04;;;;;;;1.70;1.70;;;16.20;1.00;;;;;;6265176;28;20260;-53
2022/07/16 01:17:08;;;;;;;2.80;1.60;;;16.10;1.00;;;;;;6261473;28;20366;-54
2022/07/16 01:20:12;;;;;;;1.70;1.70;;;16.10;1.00;;;;;;6261236;28;20234;-54
2022/07/16 01:23:21;;;;;;;1.50;1.50;;;16.10;1.00;;;;;;6258060;28;20238;-53
2022/07/16 01:26:24;;;;;;;2.93;1.60;;;16.00;1.00;;;;;;6261366;28;20317;-55
2022/07/16 01:29:27;;;;;;;1.93;1.83;;;16.00;1.00;;;;;;6266733;28;20245;-53
2022/07/16 01:32:30;;;;;;;1.60;1.50;;;16.00;1.00;;;;;;6244973;28;20234;-50
2022/07/16 01:35:33;;;;;;;3.13;1.70;;;16.00;1.00;;;;;;6305786;28;20225;-51
2022/07/16 01:38:40;;;;;;;1.90;1.47;;;16.00;1.00;;;;;;6271895;28;20241;-53
2022/07/16 01:41:50;;;;;;;1.60;1.60;;;16.00;1.00;;;;;;6285827;28;20225;-54
2022/07/16 01:44:53;;;;;;;1.60;1.60;;;16.00;1.00;;;;;;6285086;28;20298;-53
2022/07/16 01:47:56;;;;;;;1.53;1.53;;;16.00;1.00;;;;;;6274919;28;20266;-52
2022/07/16 01:51:00;;;;;;;1.60;1.60;;;16.00;1.00;;;;;;6261514;28;20813;-53
2022/07/16 01:54:04;;;;;;;2.43;1.80;;;15.90;1.00;;;;;;6256874;28;20238;-53
2022/07/16 01:57:07;;;;;;;1.83;1.83;;;15.90;1.00;;;;;;6259797;28;20389;-53
2022/07/16 02:00:10;;;;;;;2.00;1.90;;;15.80;1.00;;;;;;6261191;28;20320;-53
2022/07/16 02:03:14;;;;;;;1.90;1.80;;;15.90;1.00;;;;;;6265919;28;20237;-53
2022/07/16 02:06:17;;;;;;;1.90;1.80;;;15.80;1.00;;;;;;6304106;28;20235;-52
2022/07/16 02:09:22;;;;;;;1.67;1.67;;;15.80;1.00;;;;;;6278056;28;20252;-53
2022/07/16 02:12:25;;;;;;;1.63;1.63;;;15.80;1.00;;;;;;6269661;28;20399;-53
2022/07/16 02:15:28;;;;;;;2.40;1.73;;;15.80;1.00;;;;;;6260320;28;20510;-53
2022/07/16 02:18:31;;;;;;;1.80;1.80;;;15.80;1.00;;;;;;6258960;28;20352;-53
2022/07/16 02:21:34;;;;;;;1.70;1.70;;;15.70;1.00;;;;;;6274835;28;20367;-53
2022/07/16 02:24:41;;;;;;;1.90;1.90;;;15.80;1.00;;;;;;6281324;28;20316;-52
2022/07/16 02:28:07;;;;;;;1.53;1.53;;;15.80;1.00;;;;;;6283807;28;20387;-53
2022/07/16 02:31:10;;;;;;;2.00;1.80;;;15.80;1.00;;;;;;6259989;28;20238;-53
2022/07/16 02:34:13;;;;;;;1.83;1.73;;;15.70;1.00;;;;;;6288341;28;20857;-48
2022/07/16 02:37:16;;;;;;;2.83;2.00;;;15.80;1.00;;;;;;6300843;28;20691;-53
2022/07/16 02:40:20;;;;;;;1.83;1.83;;;15.70;1.00;;;;;;6269871;28;20272;-52
2022/07/16 02:43:34;;;;;;;1.97;1.70;;;15.70;1.00;;;;;;6283147;28;20233;-53
2022/07/16 02:46:37;;;;;;;2.17;2.07;;;15.70;1.00;;;;;;6283501;28;20295;-53
2022/07/16 02:49:40;;;;;;;2.40;2.00;;;15.70;1.00;;;;;;6272896;28;20297;-54
2022/07/16 02:52:43;;;;;;;1.97;1.87;;;15.70;1.00;;;;;;6259463;28;20602;-54
2022/07/16 02:55:47;;;;;;;2.27;2.17;;;15.70;1.00;;;;;;6270067;28;20233;-52
2022/07/16 02:58:50;;;;;;;4.20;2.00;;;15.70;1.00;;;;;;6272199;28;20399;-53
2022/07/16 03:01:53;;;;;;;2.53;1.90;;;15.80;1.00;;;;;;6282410;28;20262;-53
2022/07/16 03:04:55;;;;;;;1.67;1.67;;;15.80;1.00;;;;;;6290863;28;20788;-53
2022/07/16 03:07:58;;;;;;;2.67;1.80;;;15.70;1.00;;;;;;6272480;28;20245;-54
2022/07/16 03:11:03;;;;;;;1.80;1.70;;;15.80;1.00;;;;;;6276596;28;20241;-54
2022/07/16 03:14:07;;;;;;;1.80;1.73;;;15.80;1.00;;;;;;6270985;28;20450;-52
2022/07/16 03:17:10;;;;;;;1.67;1.63;;;15.80;1.00;;;;;;6260310;28;20241;-54
2022/07/16 03:20:13;;;;;;;2.10;1.70;;;15.80;1.00;;;;;;6258685;28;20237;-53
2022/07/16 03:23:16;;;;;;;2.20;1.90;;;15.80;1.00;;;;;;6227143;28;20707;-53
2022/07/16 03:26:21;;;;;;;1.80;1.80;;;15.70;1.00;;;;;;6230300;28;20595;-52
2022/07/16 03:29:24;;;;;;;1.77;1.77;;;15.70;1.00;;;;;;6257296;28;20242;-53
2022/07/16 03:32:27;;;;;;;1.97;1.97;;;15.70;1.00;;;;;;6252227;28;20328;-52
2022/07/16 03:35:30;;;;;;;1.87;1.80;;;15.70;1.00;;;;;;6279428;28;20269;-53
2022/07/16 03:41:55;;;;;;;1.50;1.50;;;15.80;1.00;;;;;;6275481;28;20761;-52
2022/07/16 03:44:58;;;;;;;2.40;1.93;;;15.80;1.00;;;;;;6276637;28;20715;-56
2022/07/16 03:48:01;;;;;;;2.00;1.90;;;15.80;1.00;;;;;;6273598;28;20328;-53
2022/07/16 03:51:04;;;;;;;1.77;1.77;;;15.70;1.00;;;;;;6277858;28;20722;-53
2022/07/16 03:54:07;;;;;;;1.93;1.83;;;15.60;1.00;;;;;;6270831;28;20237;-54
2022/07/16 03:57:12;;;;;;;2.20;2.00;;;15.50;1.00;;;;;;6265883;28;20933;-54
2022/07/16 04:00:21;;;;;;;2.40;2.20;;;15.50;1.00;;;;;;6281118;28;20248;-54
2022/07/16 04:03:25;;;;;;;1.83;1.83;;;15.50;1.00;;;;;;6277584;28;20379;-54
2022/07/16 04:06:28;;;;;;;1.70;1.60;;;15.60;1.00;;;;;;6274668;28;20619;-54
2022/07/16 04:09:31;;;;;;;2.03;2.03;;;15.60;1.00;;;;;;6265611;28;20848;-54
2022/07/16 04:12:36;;;;;;;2.07;1.97;;;15.60;1.00;;;;;;6274913;28;20237;-54
2022/07/16 04:15:39;;;;;;;1.87;1.87;;;15.60;1.00;;;;;;6278662;28;20924;-53
2022/07/16 04:18:42;;;;;;;2.10;2.00;;;15.50;1.00;;;;;;6279066;28;20309;-54
2022/07/16 04:21:45;;;;;;;3.67;1.83;;;15.50;1.00;;;;;;6268040;28;20234;-55
2022/07/16 04:24:48;;;;;;;1.60;1.60;;;15.50;1.00;;;;;;6278928;28;20274;-55
2022/07/16 04:27:52;;;;;;;2.17;2.00;;;15.50;1.00;;;;;;6281798;28;20813;-54
2022/07/16 04:30:55;;;;;;;4.83;1.90;;;15.50;1.00;;;;;;6276230;28;20283;-54
2022/07/16 04:33:58;;;;;;;1.90;1.80;;;15.60;1.00;;;;;;6280496;28;20229;-55
2022/07/16 04:37:01;;;;;;;2.10;1.93;;;15.50;1.00;;;;;;6262360;28;20748;-56
2022/07/16 04:40:05;;;;;;;1.80;1.77;;;15.50;1.00;;;;;;6274696;28;20279;-54
2022/07/16 04:43:09;;;;;;;2.20;2.00;;;15.60;1.00;;;;;;6285164;28;20438;-54
2022/07/16 04:46:12;;;;;;;1.93;1.80;;;15.60;1.00;;;;;;6285698;28;20307;-54
2022/07/16 04:49:15;;;;;;;2.00;1.70;;;15.50;1.00;;;;;;6279687;28;20839;-54
2022/07/16 04:52:18;;;;;;;2.60;1.70;;;15.50;1.00;;;;;;6285510;28;20488;-53
2022/07/16 04:55:21;;;;;;;2.20;1.97;;;15.60;1.00;;;;;;6286714;28;20280;-53
2022/07/16 04:58:25;;;;;;;1.90;1.80;;;15.60;1.00;;;;;;6292161;28;20379;-53
2022/07/16 05:01:30;;;;;;;2.57;1.87;;;15.60;1.00;;;;;;6286870;28;20484;-55
2022/07/16 05:04:34;;;;;;;1.93;1.80;;;15.70;1.00;;;;;;6286267;28;20275;-56
2022/07/16 05:07:38;;;;;;;1.80;1.80;;;15.70;1.00;;;;;;6279597;28;20370;-53
2022/07/16 05:10:41;;;;;;;2.00;1.90;;;15.70;1.00;;;;;;6285448;28;20301;-54
2022/07/16 05:13:45;;;;;;;2.20;2.00;;;15.70;1.00;;;;;;6282761;28;20242;-54
2022/07/16 05:16:48;;;;;;;2.90;2.00;;;15.70;1.00;;;;;;6291966;28;20251;-55
2022/07/16 05:19:51;;;;;;;3.80;2.13;;;15.70;1.00;;;;;;6287292;28;20233;-55
2022/07/16 05:22:54;;;;;;;3.37;2.00;;;15.80;1.00;;;;;;6275537;28;20710;-55
2022/07/16 05:25:57;;;;;;;2.27;2.00;;;15.80;1.00;;;;;;6291010;28;20328;-55
2022/07/16 05:29:01;;;;;;;2.23;1.63;;;15.90;1.00;;;;;;6286813;28;20360;-55
2022/07/16 05:32:06;;;;;;;1.63;1.63;;;15.90;1.00;;;;;;6284890;28;20233;-54
2022/07/16 05:35:10;;;;;;;1.57;1.57;;;16.00;1.00;;;;;;6289523;28;20341;-59
2022/07/16 05:38:13;;;;;;;4.07;1.77;;;16.10;1.00;;;;;;6275865;28;20300;-54
2022/07/16 05:41:16;;;;;;;2.33;2.23;;;16.20;1.00;;;;;;6294935;28;20224;-54
2022/07/16 05:44:20;;;;;;;1.90;1.90;;;16.30;1.00;;;;;;6295880;28;20367;-54
2022/07/16 05:47:23;;;;;;;2.40;1.90;;;16.40;1.00;;;;;;6293350;28;20458;-55
2022/07/16 05:50:28;;;;;;;2.23;2.03;;;16.40;1.00;;;;;;6282513;28;21230;-55
2022/07/16 05:53:31;;;;;;;2.57;2.37;;;16.50;1.00;;;;;;6260796;28;20298;-52
2022/07/16 05:56:34;;;;;;;2.23;2.13;;;16.50;1.00;;;;;;6289569;28;20724;-53
2022/07/16 05:59:38;;;;;;;2.37;2.27;;;16.60;1.00;;;;;;6274684;28;20299;-53
2022/07/16 06:02:46;;;;;;;2.33;2.17;;;16.60;1.00;;;;;;6288402;28;20371;-53
2022/07/16 06:05:49;;;;;;;6.27;2.40;;;16.70;1.00;;;;;;6291382;28;20735;-54
2022/07/16 06:08:52;;;;;;;2.53;2.30;;;16.70;1.00;;;;;;6284566;28;20281;-55
2022/07/16 06:11:55;;;;;;;2.63;2.17;;;16.70;1.00;;;;;;6287368;28;20260;-55
2022/07/16 06:14:59;;;;;;;3.47;2.27;;;16.60;1.00;;;;;;6289687;28;20298;-56
2022/07/16 06:18:04;;;;;;;3.07;2.80;;;16.60;1.00;;;;;;6283417;28;20302;-56
2022/07/16 06:21:07;;;;;;;2.57;2.47;;;16.50;1.00;;;;;;6279371;28;20229;-57
2022/07/16 06:24:10;;;;;;;7.27;2.30;;;16.30;1.00;;;;;;6281627;28;20229;-56
2022/07/16 06:27:13;;;;;;;3.90;2.70;;;16.30;1.00;;;;;;6291194;28;20383;-58
2022/07/16 06:30:18;;;;;;;2.47;2.40;;;16.00;1.00;;;;;;6293066;28;20278;-55
2022/07/16 06:33:21;;;;;;;3.03;2.93;;;15.90;1.00;;;;;;6288962;28;20286;-59
2022/07/16 06:36:23;;;;;;;3.30;3.07;;;15.80;1.00;;;;;;6276429;28;20248;-57
2022/07/16 06:39:27;;;;;;;2.67;2.57;;;15.70;1.00;;;;;;6280275;28;20252;-56
2022/07/16 06:42:30;;;;;;;2.60;2.50;;;15.70;1.00;;;;;;6282662;28;20723;-56
2022/07/16 06:45:34;;;;;;;3.53;3.20;;;15.60;1.00;;;;;;6281727;28;20522;-56
2022/07/16 06:48:37;;;;;;;3.30;3.00;;;15.50;1.00;;;;;;6279762;28;20241;-56
2022/07/16 06:51:41;;;;;;;3.03;2.87;;;15.40;1.00;;;;;;6291329;28;20236;-56
2022/07/16 06:54:44;;;;;;;3.20;2.97;;;15.20;1.00;;;;;;6278905;28;20313;-55
2022/07/16 06:57:48;;;;;;;3.80;3.30;;;15.20;1.00;;;;;;6280347;28;20805;-55
2022/07/16 07:00:53;;;;;;;3.70;3.27;;;15.20;1.00;;;;;;6278866;28;20851;-59
2022/07/16 07:03:56;;;;;;;3.60;3.50;;;15.20;1.00;;;;;;6284360;28;20274;-57
2022/07/16 07:06:59;;;;;;;3.30;3.20;;;15.30;1.00;;;;;;6283080;28;20252;-58
2022/07/16 07:10:02;;;;;;;3.30;3.10;;;15.40;1.00;;;;;;6280365;28;20370;-57
2022/07/16 07:13:06;;;;;;;3.87;3.40;;;15.60;1.00;;;;;;6289636;28;20233;-56
2022/07/16 07:16:10;;;;;;;6.77;3.30;;;15.90;1.00;;;;;;6282836;28;20233;-56
2022/07/16 07:19:13;;;;;;;3.23;3.13;;;16.10;1.00;;;;;;6278392;28;20282;-58
2022/07/16 07:22:16;;;;;;;3.20;3.00;;;16.20;1.00;;;;;;6280915;28;20237;-58
2022/07/16 07:25:21;;;;;;;5.07;3.47;;;16.40;1.00;;;;;;6280614;28;20322;-56
2022/07/16 07:28:24;;;;;;;3.67;3.37;;;16.40;1.00;;;;;;6279117;28;20698;-57
2022/07/16 07:31:28;;;;;;;3.00;2.90;;;16.50;1.00;;;;;;6281875;28;20237;-56
2022/07/16 07:34:31;;;;;;;3.30;3.20;;;16.70;1.00;;;;;;6289896;28;20500;-55
2022/07/16 07:37:35;;;;;;;3.27;3.17;;;17.00;1.00;;;;;;6288293;28;20374;-57
2022/07/16 07:40:38;;;;;;;3.20;3.00;;;17.20;1.00;;;;;;6282643;28;20279;-58
2022/07/16 07:43:41;;;;;;;3.20;3.00;;;17.20;1.00;;;;;;6286030;28;20243;-56
2022/07/16 07:46:45;;;;;;;3.53;3.33;;;17.30;1.00;;;;;;6286418;28;20299;-57
2022/07/16 07:49:53;;;;;;;3.47;3.17;;;17.30;1.00;;;;;;6275057;28;20241;-57
2022/07/16 07:52:56;;;;;;;4.57;3.43;;;17.30;1.00;;;;;;6280816;28;20709;-54
2022/07/16 07:56:02;;;;;;;6.70;2.93;;;17.40;1.00;;;;;;6280963;28;20259;-56
2022/07/16 07:59:08;;;;;;;3.03;2.83;;;17.30;1.00;;;;;;6289464;28;20237;-58
2022/07/16 08:02:12;;;;;;;3.20;3.10;;;17.20;1.00;;;;;;6284031;28;20367;-58
2022/07/16 08:05:16;;;;;;;3.13;3.10;;;17.20;1.00;;;;;;6275377;28;20464;-55
2022/07/16 08:08:18;;;;;;;3.07;2.87;;;17.20;1.00;;;;;;6272730;28;20233;-55
2022/07/16 08:11:21;;;;;;;3.10;2.97;;;17.20;1.00;;;;;;6283701;28;20509;-54
2022/07/16 08:14:25;;;;;;;2.80;2.80;;;17.30;1.00;;;;;;6276576;28;20970;-56
2022/07/16 08:17:31;;;;;;;2.43;2.43;;;17.40;1.00;;;;;;6285372;28;20298;-56
2022/07/16 08:20:35;;;;;;;2.97;2.80;;;17.70;1.00;;;;;;6281185;28;20483;-55
2022/07/16 08:26:58;;;;;;;2.67;2.57;;;18.20;1.00;;;;;;6282915;28;20705;-57
2022/07/16 08:30:02;;;;;;;2.40;2.20;;;18.30;1.00;;;;;;6290566;28;20233;-57
2022/07/16 08:33:09;;;;;;;2.40;2.30;;;18.40;1.00;;;;;;6282245;28;20344;-57
2022/07/16 08:36:13;;;;;;;2.37;2.27;;;18.50;1.00;;;;;;6285240;28;20235;-55
2022/07/16 08:39:16;;;;;;;2.03;1.93;;;18.60;1.00;;;;;;6273769;28;20230;-55
2022/07/16 08:42:20;;;;;;;2.30;2.10;;;18.80;1.00;;;;;;6282898;28;20658;-55
2022/07/16 08:45:24;;;;;;;2.03;2.00;;;19.10;1.00;;;;;;6300310;28;20331;-54
2022/07/16 08:48:30;;;;;;;1.87;1.87;;;19.10;1.00;;;;;;6283911;28;20251;-55
2022/07/16 08:51:36;;;;;;;1.83;1.80;;;19.30;1.00;;;;;;6285240;28;20487;-56
2022/07/16 08:54:40;;;;;;;2.60;1.70;;;19.10;1.00;;;;;;6288306;28;20230;-52
2022/07/16 08:57:47;;;;;;;2.07;1.97;;;18.90;1.00;;;;;;6284175;28;20233;-57
2022/07/16 09:00:54;;;;;;;2.40;2.30;;;19.00;1.00;;;;;;6292963;28;21991;-54
2022/07/16 09:03:59;;;;;;;2.20;2.10;;;19.20;1.00;;;;;;6287579;28;20237;-54
2022/07/16 09:07:03;;;;;;;2.30;1.80;;;19.60;1.00;;;;;;6281786;28;20230;-55
2022/07/16 09:10:08;;;;;;;1.97;1.97;;;19.80;1.00;;;;;;6275181;28;20361;-55
2022/07/16 09:13:11;;;;;;;2.07;1.83;;;20.00;1.00;;;;;;6295588;28;20686;-57
2022/07/16 09:16:28;;;;;;;2.10;1.67;;;20.20;1.00;;;;;;6291848;28;20234;-57
2022/07/16 09:19:32;;;;;;;1.70;1.60;;;20.00;1.00;;;;;;6280196;28;20241;-58
2022/07/16 09:22:38;;;;;;;1.90;1.90;;;20.10;1.00;;;;;;6282245;28;20245;-54
2022/07/16 09:25:48;;;;;;;1.70;1.60;;;20.30;1.00;;;;;;6287494;28;20286;-53
2022/07/16 09:28:52;;;;;;;2.80;1.90;;;20.60;1.00;;;;;;6290177;28;20398;-55
2022/07/16 09:31:55;;;;;;;1.60;1.50;;;20.50;1.00;;;;;;6282000;28;20330;-53
2022/07/16 09:35:04;;;;;;;1.63;1.60;;;20.40;1.00;;;;;;6289031;28;20233;-54
2022/07/16 09:38:09;;;;;;;1.67;1.57;;;20.30;1.00;;;;;;6278932;28;20317;-54
2022/07/16 09:41:45;;;;;;;1.73;1.63;;;20.30;1.00;;;;;;6284939;28;20233;-55
2022/07/16 09:44:53;;;;;;;3.03;1.60;;;20.40;1.00;;;;;;6288201;28;20238;-59
2022/07/16 09:48:01;;;;;;;1.73;1.67;;;20.70;1.00;;;;;;6268007;28;20372;-55
2022/07/16 09:51:17;;;;;;;1.60;1.60;;;21.00;1.00;;;;;;6286413;28;20286;-55
2022/07/16 09:54:27;;;;;;;1.33;1.33;;;21.20;1.00;;;;;;6275607;28;20791;-54
2022/07/16 09:57:30;;;;;;;1.60;1.50;;;21.00;1.00;;;;;;6284546;28;20558;-54
2022/07/16 10:00:33;;;;;;;1.30;1.30;;;20.80;1.00;;;;;;6280434;28;20715;-55
2022/07/16 10:03:36;;;;;;;1.50;1.50;;;20.70;1.00;;;;;;6285857;28;20371;-55
2022/07/16 10:06:43;;;;;;;1.87;1.53;;;20.70;1.00;;;;;;6287420;28;20237;-54
2022/07/16 10:09:47;;;;;;;1.70;1.70;;;20.60;1.00;;;;;;6272794;28;20241;-55
2022/07/16 10:12:50;;;;;;;1.80;1.50;;;20.40;1.00;;;;;;6282858;28;20292;-54
2022/07/16 10:15:54;;;;;;;1.70;1.60;;;20.40;1.00;;;;;;6275290;28;20241;-53
2022/07/16 10:19:00;;;;;;;1.77;1.70;;;20.60;1.00;;;;;;6273987;28;20287;-53
2022/07/16 10:22:18;;;;;;;1.57;1.53;;;20.70;1.00;;;;;;6275123;28;20233;-54
2022/07/16 10:25:24;;;;;;;1.60;1.60;;;20.90;1.00;;;;;;6281054;28;20306;-54
2022/07/16 10:28:39;;;;;;;1.50;1.40;;;21.00;1.00;;;;;;6289187;28;20244;-54
2022/07/16 10:35:04;;;;;;;1.83;1.60;;;21.50;1.00;;;;;;6290959;28;20236;-53
2022/07/16 10:38:09;;;;;;;1.97;1.97;;;21.30;1.00;;;;;;6278727;28;20328;-53
2022/07/16 10:41:27;;;;;;;8.20;1.70;;;21.00;1.00;;;;;;6280259;28;20233;-54
2022/07/16 10:44:53;;;;;;;2.17;1.90;;;21.00;1.00;;;;;;6293342;28;20256;-53
2022/07/16 10:47:58;;;;;;;1.70;1.60;;;20.90;1.00;;;;;;6267832;28;20307;-51
2022/07/16 10:51:12;;;;;;;1.87;1.77;;;20.90;1.00;;;;;;6278614;28;20245;-51
2022/07/16 10:54:21;;;;;;;1.80;1.70;;;20.90;1.00;;;;;;6283393;28;20241;-54
2022/07/16 10:57:34;;;;;;;1.70;1.60;;;20.70;1.00;;;;;;6286635;28;20287;-53
2022/07/16 11:00:37;;;;;;;1.80;1.70;;;20.70;1.00;;;;;;6284034;28;20247;-52
2022/07/16 11:03:40;;;;;;;1.83;1.67;;;20.70;1.00;;;;;;6289340;28;20233;-52
2022/07/16 11:06:50;;;;;;;1.70;1.60;;;20.80;1.00;;;;;;6275999;28;20256;-52
2022/07/16 11:09:55;;;;;;;3.10;1.57;;;21.00;1.00;;;;;;6272313;28;20239;-55
2022/07/16 11:13:00;;;;;;;1.77;1.57;;;21.10;1.00;;;;;;6288353;28;20236;-53
2022/07/16 11:16:08;;;;;;;1.50;1.40;;;21.10;1.00;;;;;;6285392;28;20400;-53
2022/07/16 11:19:11;;;;;;;3.23;1.80;;;20.90;1.00;;;;;;6281871;28;20237;-56
2022/07/16 11:22:17;;;;;;;2.03;1.80;;;20.80;1.00;;;;;;6280457;28;20248;-53
2022/07/16 11:25:21;;;;;;;1.97;1.77;;;20.70;1.00;;;;;;6281296;28;20322;-55
2022/07/16 11:28:25;;;;;;;2.63;1.40;;;20.70;1.00;;;;;;6282898;28;20241;-52
2022/07/16 11:31:32;;;;;;;2.63;1.50;;;20.90;1.00;;;;;;6286976;28;20245;-54
2022/07/16 11:34:40;;;;;;;1.47;1.37;;;21.10;1.00;;;;;;6285176;28;20268;-53
2022/07/16 11:37:54;;;;;;;1.53;1.47;;;21.20;1.00;;;;;;6288613;28;20324;-54
2022/07/16 11:41:04;;;;;;;1.67;1.60;;;21.10;1.00;;;;;;6281526;28;20241;-53
2022/07/16 11:44:11;;;;;;;1.60;1.60;;;21.10;1.00;;;;;;6284909;28;20241;-53
2022/07/16 11:47:14;;;;;;;2.27;1.57;;;21.30;1.00;;;;;;6288613;28;20233;-54
2022/07/16 11:50:27;;;;;;;1.63;1.53;;;21.70;1.00;;;;;;6287617;28;20322;-53
2022/07/16 11:53:32;;;;;;;1.70;1.60;;;21.80;1.00;;;;;;6276987;28;20549;-52
2022/07/16 11:56:39;;;;;;;1.57;1.53;;;21.60;1.00;;;;;;6286863;28;20237;-54
2022/07/16 11:59:47;;;;;;;2.53;1.93;;;21.50;1.00;;;;;;6282281;28;20308;-53
2022/07/16 12:02:55;;;;;;;1.67;1.60;;;21.60;1.00;;;;;;6293485;28;20258;-55
2022/07/16 12:06:11;;;;;;;2.17;1.60;;;21.60;1.00;;;;;;6282302;28;20241;-55
2022/07/16 12:09:14;;;;;;;2.33;1.63;;;21.70;1.00;;;;;;6270306;28;20233;-51
2022/07/16 12:12:20;;;;;;;1.57;1.30;;;21.50;1.00;;;;;;6283435;28;20799;-53
2022/07/16 12:15:23;;;;;;;1.53;1.50;;;21.30;1.00;;;;;;6278598;28;20236;-53
2022/07/16 12:18:27;;;;;;;3.30;1.60;;;21.30;1.00;;;;;;6261701;28;20250;-53
2022/07/16 12:21:31;;;;;;;2.30;1.30;;;21.60;1.00;;;;;;6287430;28;20243;-52
2022/07/16 12:24:38;;;;;;;1.60;1.50;;;22.00;1.00;;;;;;6275401;28;20244;-53
2022/07/16 12:27:47;;;;;;;2.80;1.50;;;21.90;1.00;;;;;;6273695;28;20279;-52
2022/07/16 12:30:52;;;;;;;1.80;1.50;;;22.00;1.00;;;;;;6274582;28;20306;-51
2022/07/16 12:33:57;;;;;;;1.70;1.60;;;22.20;1.00;;;;;;6271470;28;20260;-53
2022/07/16 12:37:00;;;;;;;1.90;1.60;;;22.20;1.00;;;;;;6283061;28;20966;-54
2022/07/16 12:40:13;;;;;;;1.33;1.27;;;21.80;1.00;;;;;;6283859;28;20240;-53
2022/07/16 12:43:17;;;;;;;1.80;1.70;;;21.70;1.00;;;;;;6276577;28;20808;-51
2022/07/16 12:46:21;;;;;;;2.00;1.57;;;21.60;1.00;;;;;;6290707;28;20236;-53
2022/07/16 12:49:26;;;;;;;5.33;1.40;;;21.40;1.00;;;;;;6285065;28;20249;-53
2022/07/16 12:52:29;;;;;;;1.70;1.60;;;21.30;1.00;;;;;;6282817;28;20726;-53
2022/07/16 12:58:56;;;;;;;4.20;1.60;;;21.20;1.00;;;;;;6280183;28;20230;-54
2022/07/16 13:01:59;;;;;;;1.83;1.77;;;20.90;1.00;;;;;;6285559;28;20488;-54
2022/07/16 13:05:02;;;;;;;1.70;1.60;;;20.90;1.00;;;;;;6283993;28;20602;-55
2022/07/16 13:08:06;;;;;;;2.70;1.70;;;21.00;1.00;;;;;;6275061;28;20233;-53
2022/07/16 13:11:10;;;;;;;2.47;1.77;;;21.10;1.00;;;;;;6283599;28;20407;-51
2022/07/16 13:14:15;;;;;;;1.50;1.50;;;21.20;1.00;;;;;;6286640;28;20321;-55
2022/07/16 13:17:18;;;;;;;4.27;1.47;;;21.40;1.00;;;;;;6281804;28;20232;-53
2022/07/16 13:20:21;;;;;;;1.60;1.50;;;21.40;1.00;;;;;;6288558;28;20237;-53
2022/07/16 13:23:25;;;;;;;3.40;1.50;;;21.50;1.00;;;;;;6289593;28;20402;-53
2022/07/16 13:26:30;;;;;;;1.93;1.57;;;21.70;1.00;;;;;;6282998;28;20241;-53
2022/07/16 13:29:35;;;;;;;1.50;1.40;;;21.90;1.00;;;;;;6290529;28;20302;-53
2022/07/16 13:32:38;;;;;;;2.03;1.50;;;22.20;1.00;;;;;;6290896;28;20262;-51
2022/07/16 13:35:42;;;;;;;2.03;1.67;;;22.30;1.00;;;;;;6288511;28;20691;-53
2022/07/16 13:38:45;;;;;;;1.87;1.40;;;22.40;1.00;;;;;;6272037;28;20346;-53
2022/07/16 13:41:48;;;;;;;1.67;1.67;;;22.50;1.00;;;;;;6284023;28;20229;-53
2022/07/16 13:44:52;;;;;;;2.00;1.60;;;22.50;1.00;;;;;;6275490;28;20320;-53
2022/07/16 13:47:56;;;;;;;3.07;1.83;;;22.50;1.00;;;;;;6289651;28;20243;-51
2022/07/16 13:50:59;;;;;;;1.70;1.60;;;22.30;1.00;;;;;;6287560;28;20623;-54
2022/07/16 13:54:02;;;;;;;1.53;1.53;;;21.90;1.00;;;;;;6291043;28;20780;-51
2022/07/16 14:00:25;;;;;;;2.40;1.90;;;21.60;1.00;;;;;;6248156;28;20278;-54
2022/07/16 14:03:29;;;;;;;1.87;1.70;;;21.60;1.00;;;;;;6279286;28;20229;-52
2022/07/16 14:06:32;;;;;;;2.30;1.90;;;21.60;1.00;;;;;;6281841;28;20267;-52
2022/07/16 14:09:35;;;;;;;1.40;1.40;;;21.80;1.00;;;;;;6282295;28;20241;-53
2022/07/16 14:12:38;;;;;;;2.37;1.50;;;21.90;1.00;;;;;;6284789;28;20718;-52
2022/07/16 14:15:42;;;;;;;1.97;1.60;;;21.90;1.00;;;;;;6284270;28;20387;-53
2022/07/16 14:18:45;;;;;;;2.97;1.80;;;21.90;1.00;;;;;;6276852;28;20312;-54
2022/07/16 14:21:48;;;;;;;1.50;1.50;;;22.00;1.00;;;;;;6282410;28;20229;-53
2022/07/16 14:24:51;;;;;;;4.30;1.50;;;22.00;1.00;;;;;;6282440;28;20919;-53
2022/07/16 14:27:54;;;;;;;2.80;1.83;;;22.00;1.00;;;;;;6289028;28;20643;-54
2022/07/16 14:30:58;;;;;;;1.50;1.50;;;22.20;1.00;;;;;;6282888;28;20233;-54
2022/07/16 14:34:01;;;;;;;2.73;1.60;;;22.10;1.00;;;;;;6261483;28;20244;-52
2022/07/16 14:37:05;;;;;;;1.50;1.40;;;22.10;1.00;;;;;;6287700;28;20864;-53
2022/07/16 14:40:11;;;;;;;1.63;1.40;;;21.90;1.00;;;;;;6280185;28;20241;-51
2022/07/16 14:43:14;;;;;;;1.70;1.60;;;21.90;1.00;;;;;;6292463;28;20802;-54
2022/07/16 14:46:18;;;;;;;2.00;1.80;;;22.00;1.00;;;;;;6282321;28;20320;-54
2022/07/16 14:49:21;;;;;;;1.73;1.63;;;21.90;1.00;;;;;;6281129;28;20245;-53
2022/07/16 14:52:24;;;;;;;1.60;1.50;;;21.80;1.00;;;;;;6284468;28;20295;-57
2022/07/16 14:55:27;;;;;;;2.00;1.60;;;21.90;1.00;;;;;;6280995;28;20332;-59
2022/07/16 14:58:30;;;;;;;1.70;1.50;;;22.10;1.00;;;;;;6282932;28;20876;-54
2022/07/16 15:01:36;;;;;;;3.13;1.60;;;22.30;1.00;;;;;;6282329;28;20296;-55
2022/07/16 15:04:39;;;;;;;5.70;1.63;;;22.50;1.00;;;;;;6276539;28;20261;-54
2022/07/16 15:07:43;;;;;;;2.10;1.43;;;22.30;1.00;;;;;;6268105;28;20307;-53
2022/07/16 15:10:47;;;;;;;1.70;1.57;;;22.40;1.00;;;;;;6274472;28;20313;-55
2022/07/16 15:13:50;;;;;;;1.60;1.50;;;22.40;1.00;;;;;;6290954;28;20276;-54
2022/07/16 15:16:55;;;;;;;1.40;1.40;;;22.40;1.00;;;;;;6282649;28;20392;-53
2022/07/16 15:19:57;;;;;;;1.77;1.53;;;22.40;1.00;;;;;;6277366;28;20229;-54
2022/07/16 15:23:00;;;;;;;1.77;1.70;;;22.60;1.00;;;;;;6283393;28;20237;-53
2022/07/16 15:26:04;;;;;;;1.37;1.37;;;22.70;1.00;;;;;;6284605;28;20233;-53
2022/07/16 15:29:07;;;;;;;1.43;1.40;;;22.60;1.00;;;;;;6284197;28;20326;-52
2022/07/16 15:32:12;;;;;;;1.97;1.73;;;22.50;1.00;;;;;;6281788;28;20236;-53
2022/07/16 15:35:16;;;;;;;1.60;1.50;;;22.30;1.00;;;;;;6270871;28;20730;-53
2022/07/16 15:38:19;;;;;;;4.60;1.80;;;22.20;1.00;;;;;;6291787;28;20644;-51
2022/07/16 15:41:22;;;;;;;2.17;1.97;;;22.20;1.00;;;;;;6281057;28;20751;-54
2022/07/16 15:44:25;;;;;;;2.10;1.60;;;22.10;1.00;;;;;;6275853;28;20347;-55
2022/07/16 15:47:29;;;;;;;1.50;1.40;;;22.00;1.00;;;;;;6280856;28;20276;-53
2022/07/16 15:50:32;;;;;;;1.77;1.60;;;22.10;1.00;;;;;;6276129;28;20327;-55
2022/07/16 15:53:35;;;;;;;2.40;2.00;;;22.20;1.00;;;;;;6265669;28;20846;-53
2022/07/16 15:56:38;;;;;;;2.33;1.80;;;22.20;1.00;;;;;;6283215;28;20248;-52
2022/07/16 15:59:41;;;;;;;1.77;1.67;;;22.20;1.00;;;;;;6277765;28;20297;-53
2022/07/16 16:02:45;;;;;;;2.73;1.63;;;22.20;1.00;;;;;;6283793;28;20730;-52
2022/07/16 16:05:49;;;;;;;2.47;1.77;;;22.40;1.00;;;;;;6271145;28;20245;-55
2022/07/16 16:08:52;;;;;;;3.40;1.50;;;22.40;1.00;;;;;;6267044;28;20610;-53
2022/07/16 16:11:54;;;;;;;3.17;1.77;;;22.60;1.00;;;;;;6285035;28;20282;-53
2022/07/16 16:14:57;;;;;;;2.57;1.70;;;22.60;1.00;;;;;;6282008;28;20829;-52
2022/07/16 16:18:03;;;;;;;3.40;2.10;;;22.50;1.00;;;;;;6276046;28;20226;-53
2022/07/16 16:21:26;;;;;;;3.20;1.70;;;22.40;1.00;;;;;;6282789;28;20257;-53
2022/07/16 16:24:29;;;;;;;3.03;1.70;;;22.20;1.00;;;;;;6277919;28;20237;-54
2022/07/16 16:27:32;;;;;;;1.93;1.83;;;22.10;1.00;;;;;;6273161;28;20362;-54
2022/07/16 16:30:36;;;;;;;2.20;2.00;;;22.10;1.00;;;;;;6280874;28;20772;-53
2022/07/16 16:33:40;;;;;;;1.77;1.70;;;22.00;1.00;;;;;;6283688;28;20236;-52
2022/07/16 16:36:43;;;;;;;2.87;1.73;;;22.00;1.00;;;;;;6281269;28;20440;-55